sensor_id;sensor_type;location;lat;lon;timestamp;P1;durP1;ratioP1;P2;durP2;ratioP2
17494;SDS011;8864;51.970;4.614;2023-02-28T00:00:26;1.02;;;0.70;;
17494;SDS011;8864;51.970;4.614;2023-02-28T00:02:59;1.35;;;0.60;;
17494;SDS011;8864;51.970;4.614;2023-02-28T00:05:29;2.47;;;0.50;;
17494;SDS011;8864;51.970;4.614;2023-02-28T00:07:56;0.98;;;0.70;;
17494;SDS011;8864;51.970;4.614;2023-02-28T00:10:34;2.88;;;0.60;;
17494;SDS011;8864;51.970;4.614;2023-02-28T00:13:06;1.85;;;0.82;;
17494;SDS011;8864;51.970;4.614;2023-02-28T00:15:35;1.75;;;0.80;;
17494;SDS011;8864;51.970;4.614;2023-02-28T00:18:07;1.25;;;0.70;;
17494;SDS011;8864;51.970;4.614;2023-02-28T00:20:41;0.68;;;0.68;;
17494;SDS011;8864;51.970;4.614;2023-02-28T00:23:11;0.73;;;0.47;;
17494;SDS011;8864;51.970;4.614;2023-02-28T00:25:39;0.68;;;0.50;;
17494;SDS011;8864;51.970;4.614;2023-02-28T00:28:06;1.52;;;0.70;;
17494;SDS011;8864;51.970;4.614;2023-02-28T00:30:33;2.85;;;0.77;;
17494;SDS011;8864;51.970;4.614;2023-02-28T00:33:06;1.35;;;0.70;;
17494;SDS011;8864;51.970;4.614;2023-02-28T00:35:34;2.70;;;0.60;;
17494;SDS011;8864;51.970;4.614;2023-02-28T00:38:01;0.65;;;0.50;;
17494;SDS011;8864;51.970;4.614;2023-02-28T00:40:30;2.83;;;0.60;;
17494;SDS011;8864;51.970;4.614;2023-02-28T00:43:03;1.05;;;0.60;;
17494;SDS011;8864;51.970;4.614;2023-02-28T00:45:30;1.42;;;0.70;;
17494;SDS011;8864;51.970;4.614;2023-02-28T00:48:00;2.28;;;0.73;;
17494;SDS011;8864;51.970;4.614;2023-02-28T00:50:27;3.20;;;0.52;;
17494;SDS011;8864;51.970;4.614;2023-02-28T00:52:55;1.23;;;0.68;;
17494;SDS011;8864;51.970;4.614;2023-02-28T00:55:30;1.35;;;0.80;;
17494;SDS011;8864;51.970;4.614;2023-02-28T00:57:59;1.90;;;0.55;;
17494;SDS011;8864;51.970;4.614;2023-02-28T01:00:31;0.52;;;0.47;;
17494;SDS011;8864;51.970;4.614;2023-02-28T01:03:01;1.67;;;0.55;;
17494;SDS011;8864;51.970;4.614;2023-02-28T01:05:28;0.95;;;0.60;;
17494;SDS011;8864;51.970;4.614;2023-02-28T01:08:01;1.13;;;0.60;;
17494;SDS011;8864;51.970;4.614;2023-02-28T01:10:28;0.90;;;0.50;;
17494;SDS011;8864;51.970;4.614;2023-02-28T01:12:56;1.35;;;0.73;;
17494;SDS011;8864;51.970;4.614;2023-02-28T01:15:28;1.10;;;0.60;;
17494;SDS011;8864;51.970;4.614;2023-02-28T01:17:57;1.02;;;0.60;;
17494;SDS011;8864;51.970;4.614;2023-02-28T01:20:28;1.35;;;0.63;;
17494;SDS011;8864;51.970;4.614;2023-02-28T01:22:55;0.73;;;0.60;;
17494;SDS011;8864;51.970;4.614;2023-02-28T01:25:21;1.17;;;0.63;;
17494;SDS011;8864;51.970;4.614;2023-02-28T01:27:59;0.77;;;0.45;;
17494;SDS011;8864;51.970;4.614;2023-02-28T01:30:28;0.70;;;0.50;;
17494;SDS011;8864;51.970;4.614;2023-02-28T01:32:55;2.25;;;0.60;;
17494;SDS011;8864;51.970;4.614;2023-02-28T01:35:24;0.60;;;0.50;;
17494;SDS011;8864;51.970;4.614;2023-02-28T01:37:55;0.93;;;0.65;;
17494;SDS011;8864;51.970;4.614;2023-02-28T01:40:23;2.13;;;0.55;;
17494;SDS011;8864;51.970;4.614;2023-02-28T01:42:50;1.88;;;0.73;;
17494;SDS011;8864;51.970;4.614;2023-02-28T01:45:22;0.52;;;0.50;;
17494;SDS011;8864;51.970;4.614;2023-02-28T01:47:55;0.95;;;0.60;;
17494;SDS011;8864;51.970;4.614;2023-02-28T01:50:26;0.50;;;0.38;;
17494;SDS011;8864;51.970;4.614;2023-02-28T01:53:01;2.78;;;0.45;;
17494;SDS011;8864;51.970;4.614;2023-02-28T01:55:33;0.70;;;0.50;;
17494;SDS011;8864;51.970;4.614;2023-02-28T01:58:05;1.30;;;0.50;;
17494;SDS011;8864;51.970;4.614;2023-02-28T02:00:42;1.65;;;0.60;;
17494;SDS011;8864;51.970;4.614;2023-02-28T02:03:16;0.60;;;0.50;;
17494;SDS011;8864;51.970;4.614;2023-02-28T02:06:06;0.40;;;0.40;;
17494;SDS011;8864;51.970;4.614;2023-02-28T02:08:37;1.23;;;0.50;;
17494;SDS011;8864;51.970;4.614;2023-02-28T02:11:07;1.27;;;0.70;;
17494;SDS011;8864;51.970;4.614;2023-02-28T02:14:06;0.70;;;0.52;;
17494;SDS011;8864;51.970;4.614;2023-02-28T02:16:56;0.45;;;0.40;;
17494;SDS011;8864;51.970;4.614;2023-02-28T02:26:28;0.95;;;0.60;;
17494;SDS011;8864;51.970;4.614;2023-02-28T02:29:19;0.63;;;0.50;;
17494;SDS011;8864;51.970;4.614;2023-02-28T02:32:09;0.75;;;0.60;;
17494;SDS011;8864;51.970;4.614;2023-02-28T02:34:52;0.93;;;0.50;;
17494;SDS011;8864;51.970;4.614;2023-02-28T02:37:27;1.20;;;0.70;;
17494;SDS011;8864;51.970;4.614;2023-02-28T02:40:01;1.00;;;0.50;;
17494;SDS011;8864;51.970;4.614;2023-02-28T02:42:39;2.97;;;0.50;;
17494;SDS011;8864;51.970;4.614;2023-02-28T02:45:12;1.42;;;0.50;;
17494;SDS011;8864;51.970;4.614;2023-02-28T02:50:29;0.88;;;0.57;;
17494;SDS011;8864;51.970;4.614;2023-02-28T02:53:02;0.88;;;0.65;;
17494;SDS011;8864;51.970;4.614;2023-02-28T02:55:32;2.00;;;0.60;;
17494;SDS011;8864;51.970;4.614;2023-02-28T02:58:13;1.10;;;0.50;;
17494;SDS011;8864;51.970;4.614;2023-02-28T03:00:50;1.40;;;0.50;;
17494;SDS011;8864;51.970;4.614;2023-02-28T03:03:20;1.80;;;0.55;;
17494;SDS011;8864;51.970;4.614;2023-02-28T03:05:56;1.40;;;0.60;;
17494;SDS011;8864;51.970;4.614;2023-02-28T03:08:28;2.33;;;0.52;;
17494;SDS011;8864;51.970;4.614;2023-02-28T03:11:03;1.08;;;0.47;;
17494;SDS011;8864;51.970;4.614;2023-02-28T03:13:37;1.05;;;0.60;;
17494;SDS011;8864;51.970;4.614;2023-02-28T03:16:27;1.05;;;0.65;;
17494;SDS011;8864;51.970;4.614;2023-02-28T03:22:14;0.65;;;0.50;;
17494;SDS011;8864;51.970;4.614;2023-02-28T03:24:54;1.15;;;0.57;;
17494;SDS011;8864;51.970;4.614;2023-02-28T03:27:36;0.40;;;0.40;;
17494;SDS011;8864;51.970;4.614;2023-02-28T03:30:09;0.50;;;0.50;;
17494;SDS011;8864;51.970;4.614;2023-02-28T03:32:57;2.50;;;0.50;;
17494;SDS011;8864;51.970;4.614;2023-02-28T03:35:50;0.90;;;0.50;;
17494;SDS011;8864;51.970;4.614;2023-02-28T03:38:35;0.60;;;0.47;;
17494;SDS011;8864;51.970;4.614;2023-02-28T03:41:10;1.63;;;0.50;;
17494;SDS011;8864;51.970;4.614;2023-02-28T03:43:48;0.85;;;0.60;;
17494;SDS011;8864;51.970;4.614;2023-02-28T03:46:18;1.48;;;0.60;;
17494;SDS011;8864;51.970;4.614;2023-02-28T03:48:51;1.90;;;0.52;;
17494;SDS011;8864;51.970;4.614;2023-02-28T03:51:22;0.70;;;0.52;;
17494;SDS011;8864;51.970;4.614;2023-02-28T03:53:57;0.60;;;0.40;;
17494;SDS011;8864;51.970;4.614;2023-02-28T03:56:31;1.30;;;0.57;;
17494;SDS011;8864;51.970;4.614;2023-02-28T03:59:04;0.47;;;0.30;;
17494;SDS011;8864;51.970;4.614;2023-02-28T04:01:42;1.10;;;0.50;;
17494;SDS011;8864;51.970;4.614;2023-02-28T04:04:16;0.85;;;0.47;;
17494;SDS011;8864;51.970;4.614;2023-02-28T04:06:47;0.93;;;0.55;;
17494;SDS011;8864;51.970;4.614;2023-02-28T04:09:19;2.20;;;0.70;;
17494;SDS011;8864;51.970;4.614;2023-02-28T04:11:48;1.88;;;0.60;;
17494;SDS011;8864;51.970;4.614;2023-02-28T04:14:17;0.75;;;0.35;;
17494;SDS011;8864;51.970;4.614;2023-02-28T04:16:49;0.50;;;0.45;;
17494;SDS011;8864;51.970;4.614;2023-02-28T04:19:17;0.68;;;0.40;;
17494;SDS011;8864;51.970;4.614;2023-02-28T04:21:54;1.20;;;0.60;;
17494;SDS011;8864;51.970;4.614;2023-02-28T04:24:25;1.30;;;0.50;;
17494;SDS011;8864;51.970;4.614;2023-02-28T04:26:59;1.98;;;0.70;;
17494;SDS011;8864;51.970;4.614;2023-02-28T04:29:38;1.65;;;0.77;;
17494;SDS011;8864;51.970;4.614;2023-02-28T04:32:09;2.33;;;0.60;;
17494;SDS011;8864;51.970;4.614;2023-02-28T04:34:39;1.92;;;0.52;;
17494;SDS011;8864;51.970;4.614;2023-02-28T04:37:13;1.83;;;0.60;;
17494;SDS011;8864;51.970;4.614;2023-02-28T04:39:47;0.80;;;0.50;;
17494;SDS011;8864;51.970;4.614;2023-02-28T04:42:23;0.80;;;0.60;;
17494;SDS011;8864;51.970;4.614;2023-02-28T04:44:50;1.35;;;0.68;;
17494;SDS011;8864;51.970;4.614;2023-02-28T04:47:18;0.60;;;0.45;;
17494;SDS011;8864;51.970;4.614;2023-02-28T04:49:48;1.30;;;0.50;;
17494;SDS011;8864;51.970;4.614;2023-02-28T04:52:17;0.95;;;0.57;;
17494;SDS011;8864;51.970;4.614;2023-02-28T04:54:48;0.50;;;0.40;;
17494;SDS011;8864;51.970;4.614;2023-02-28T04:57:15;0.50;;;0.40;;
17494;SDS011;8864;51.970;4.614;2023-02-28T04:59:42;0.63;;;0.52;;
17494;SDS011;8864;51.970;4.614;2023-02-28T05:02:10;1.30;;;0.52;;
17494;SDS011;8864;51.970;4.614;2023-02-28T05:04:38;1.40;;;0.50;;
17494;SDS011;8864;51.970;4.614;2023-02-28T05:07:08;1.15;;;0.50;;
17494;SDS011;8864;51.970;4.614;2023-02-28T05:09:37;1.13;;;0.40;;
17494;SDS011;8864;51.970;4.614;2023-02-28T05:12:05;1.35;;;0.68;;
17494;SDS011;8864;51.970;4.614;2023-02-28T05:14:35;0.65;;;0.50;;
17494;SDS011;8864;51.970;4.614;2023-02-28T05:17:02;2.20;;;0.70;;
17494;SDS011;8864;51.970;4.614;2023-02-28T05:19:30;0.95;;;0.50;;
17494;SDS011;8864;51.970;4.614;2023-02-28T05:21:57;0.90;;;0.47;;
17494;SDS011;8864;51.970;4.614;2023-02-28T05:24:24;2.45;;;0.55;;
17494;SDS011;8864;51.970;4.614;2023-02-28T05:26:52;1.10;;;0.50;;
17494;SDS011;8864;51.970;4.614;2023-02-28T05:29:23;1.33;;;0.70;;
17494;SDS011;8864;51.970;4.614;2023-02-28T05:31:51;2.17;;;1.05;;
17494;SDS011;8864;51.970;4.614;2023-02-28T05:34:17;0.52;;;0.30;;
17494;SDS011;8864;51.970;4.614;2023-02-28T05:36:45;0.70;;;0.47;;
17494;SDS011;8864;51.970;4.614;2023-02-28T05:39:16;1.58;;;0.52;;
17494;SDS011;8864;51.970;4.614;2023-02-28T05:41:53;0.80;;;0.55;;
17494;SDS011;8864;51.970;4.614;2023-02-28T05:44:20;0.40;;;0.40;;
17494;SDS011;8864;51.970;4.614;2023-02-28T05:46:51;0.65;;;0.60;;
17494;SDS011;8864;51.970;4.614;2023-02-28T05:49:22;2.58;;;0.40;;
17494;SDS011;8864;51.970;4.614;2023-02-28T05:52:03;1.00;;;0.50;;
17494;SDS011;8864;51.970;4.614;2023-02-28T05:54:43;1.05;;;0.50;;
17494;SDS011;8864;51.970;4.614;2023-02-28T05:57:15;1.02;;;0.50;;
17494;SDS011;8864;51.970;4.614;2023-02-28T05:59:43;1.67;;;0.43;;
17494;SDS011;8864;51.970;4.614;2023-02-28T06:02:14;0.90;;;0.45;;
17494;SDS011;8864;51.970;4.614;2023-02-28T06:04:44;0.70;;;0.40;;
17494;SDS011;8864;51.970;4.614;2023-02-28T06:07:14;0.57;;;0.45;;
17494;SDS011;8864;51.970;4.614;2023-02-28T06:09:50;1.45;;;0.60;;
17494;SDS011;8864;51.970;4.614;2023-02-28T06:12:22;17.23;;;1.42;;
17494;SDS011;8864;51.970;4.614;2023-02-28T06:14:54;3.08;;;0.80;;
17494;SDS011;8864;51.970;4.614;2023-02-28T06:17:26;2.88;;;0.60;;
17494;SDS011;8864;51.970;4.614;2023-02-28T06:19:59;2.95;;;0.52;;
17494;SDS011;8864;51.970;4.614;2023-02-28T06:22:27;4.55;;;1.25;;
17494;SDS011;8864;51.970;4.614;2023-02-28T06:25:01;1.08;;;0.50;;
17494;SDS011;8864;51.970;4.614;2023-02-28T06:27:33;2.63;;;0.65;;
17494;SDS011;8864;51.970;4.614;2023-02-28T06:30:10;3.90;;;0.60;;
17494;SDS011;8864;51.970;4.614;2023-02-28T06:32:40;1.50;;;0.80;;
17494;SDS011;8864;51.970;4.614;2023-02-28T06:35:07;4.43;;;0.60;;
17494;SDS011;8864;51.970;4.614;2023-02-28T06:37:40;2.00;;;0.60;;
17494;SDS011;8864;51.970;4.614;2023-02-28T06:40:14;3.42;;;0.50;;
17494;SDS011;8864;51.970;4.614;2023-02-28T06:42:45;1.80;;;0.70;;
17494;SDS011;8864;51.970;4.614;2023-02-28T06:45:23;1.73;;;0.65;;
17494;SDS011;8864;51.970;4.614;2023-02-28T06:47:55;4.22;;;0.65;;
17494;SDS011;8864;51.970;4.614;2023-02-28T06:50:24;1.30;;;0.80;;
17494;SDS011;8864;51.970;4.614;2023-02-28T06:52:53;0.52;;;0.47;;
17494;SDS011;8864;51.970;4.614;2023-02-28T06:55:23;2.25;;;0.70;;
17494;SDS011;8864;51.970;4.614;2023-02-28T06:57:51;0.43;;;0.40;;
17494;SDS011;8864;51.970;4.614;2023-02-28T07:00:21;1.00;;;0.60;;
17494;SDS011;8864;51.970;4.614;2023-02-28T07:02:48;1.20;;;0.70;;
17494;SDS011;8864;51.970;4.614;2023-02-28T07:05:20;2.35;;;0.60;;
17494;SDS011;8864;51.970;4.614;2023-02-28T07:07:55;1.75;;;0.60;;
17494;SDS011;8864;51.970;4.614;2023-02-28T07:10:29;1.40;;;0.40;;
17494;SDS011;8864;51.970;4.614;2023-02-28T07:12:56;0.90;;;0.60;;
17494;SDS011;8864;51.970;4.614;2023-02-28T07:15:29;0.88;;;0.50;;
17494;SDS011;8864;51.970;4.614;2023-02-28T07:17:56;0.52;;;0.47;;
17494;SDS011;8864;51.970;4.614;2023-02-28T07:20:32;1.38;;;0.77;;
17494;SDS011;8864;51.970;4.614;2023-02-28T07:23:10;1.83;;;0.55;;
17494;SDS011;8864;51.970;4.614;2023-02-28T07:25:46;1.02;;;0.60;;
17494;SDS011;8864;51.970;4.614;2023-02-28T07:28:20;1.38;;;0.70;;
17494;SDS011;8864;51.970;4.614;2023-02-28T07:30:51;0.57;;;0.50;;
17494;SDS011;8864;51.970;4.614;2023-02-28T07:33:18;1.15;;;0.70;;
17494;SDS011;8864;51.970;4.614;2023-02-28T07:35:56;1.63;;;0.60;;
17494;SDS011;8864;51.970;4.614;2023-02-28T07:38:26;0.73;;;0.50;;
17494;SDS011;8864;51.970;4.614;2023-02-28T07:41:05;3.10;;;0.60;;
17494;SDS011;8864;51.970;4.614;2023-02-28T07:43:40;0.73;;;0.40;;
17494;SDS011;8864;51.970;4.614;2023-02-28T07:46:09;0.68;;;0.50;;
17494;SDS011;8864;51.970;4.614;2023-02-28T07:48:37;1.33;;;0.52;;
17494;SDS011;8864;51.970;4.614;2023-02-28T07:51:07;0.85;;;0.60;;
17494;SDS011;8864;51.970;4.614;2023-02-28T07:53:44;4.65;;;0.80;;
17494;SDS011;8864;51.970;4.614;2023-02-28T07:56:13;0.95;;;0.63;;
17494;SDS011;8864;51.970;4.614;2023-02-28T07:58:41;0.85;;;0.60;;
17494;SDS011;8864;51.970;4.614;2023-02-28T08:01:14;0.70;;;0.50;;
17494;SDS011;8864;51.970;4.614;2023-02-28T08:03:41;6.53;;;0.50;;
17494;SDS011;8864;51.970;4.614;2023-02-28T08:06:09;0.82;;;0.50;;
17494;SDS011;8864;51.970;4.614;2023-02-28T08:08:43;7.82;;;0.60;;
17494;SDS011;8864;51.970;4.614;2023-02-28T08:11:10;3.15;;;0.70;;
17494;SDS011;8864;51.970;4.614;2023-02-28T08:13:40;2.88;;;0.75;;
17494;SDS011;8864;51.970;4.614;2023-02-28T08:16:11;19.50;;;3.65;;
17494;SDS011;8864;51.970;4.614;2023-02-28T08:18:43;13.15;;;2.70;;
17494;SDS011;8864;51.970;4.614;2023-02-28T08:21:10;19.52;;;2.67;;
17494;SDS011;8864;51.970;4.614;2023-02-28T08:23:38;14.20;;;2.70;;
17494;SDS011;8864;51.970;4.614;2023-02-28T08:26:05;14.73;;;2.85;;
17494;SDS011;8864;51.970;4.614;2023-02-28T08:28:44;14.73;;;2.63;;
17494;SDS011;8864;51.970;4.614;2023-02-28T08:31:12;179.65;;;24.65;;
17494;SDS011;8864;51.970;4.614;2023-02-28T08:33:41;99.82;;;13.45;;
17494;SDS011;8864;51.970;4.614;2023-02-28T08:36:11;81.95;;;12.43;;
17494;SDS011;8864;51.970;4.614;2023-02-28T08:38:39;74.95;;;13.23;;
17494;SDS011;8864;51.970;4.614;2023-02-28T08:41:07;70.10;;;12.65;;
17494;SDS011;8864;51.970;4.614;2023-02-28T08:43:40;62.83;;;10.32;;
17494;SDS011;8864;51.970;4.614;2023-02-28T08:46:08;62.55;;;9.85;;
17494;SDS011;8864;51.970;4.614;2023-02-28T08:48:40;62.00;;;10.15;;
17494;SDS011;8864;51.970;4.614;2023-02-28T08:51:11;58.08;;;8.95;;
17494;SDS011;8864;51.970;4.614;2023-02-28T08:53:49;56.83;;;8.98;;
17494;SDS011;8864;51.970;4.614;2023-02-28T08:56:35;46.45;;;9.10;;
17494;SDS011;8864;51.970;4.614;2023-02-28T08:59:18;42.17;;;7.00;;
17494;SDS011;8864;51.970;4.614;2023-02-28T09:01:48;52.22;;;8.07;;
17494;SDS011;8864;51.970;4.614;2023-02-28T09:04:19;38.17;;;6.97;;
17494;SDS011;8864;51.970;4.614;2023-02-28T09:06:47;38.03;;;6.40;;
17494;SDS011;8864;51.970;4.614;2023-02-28T09:09:15;31.45;;;7.13;;
17494;SDS011;8864;51.970;4.614;2023-02-28T09:11:42;30.80;;;6.32;;
17494;SDS011;8864;51.970;4.614;2023-02-28T09:14:11;39.95;;;6.97;;
17494;SDS011;8864;51.970;4.614;2023-02-28T09:16:39;28.58;;;6.03;;
17494;SDS011;8864;51.970;4.614;2023-02-28T09:19:14;33.25;;;6.95;;
17494;SDS011;8864;51.970;4.614;2023-02-28T09:21:45;31.60;;;6.03;;
17494;SDS011;8864;51.970;4.614;2023-02-28T09:24:18;36.47;;;5.38;;
17494;SDS011;8864;51.970;4.614;2023-02-28T09:26:47;34.55;;;6.05;;
17494;SDS011;8864;51.970;4.614;2023-02-28T09:29:15;24.75;;;4.93;;
17494;SDS011;8864;51.970;4.614;2023-02-28T09:31:44;22.05;;;4.75;;
17494;SDS011;8864;51.970;4.614;2023-02-28T09:34:11;22.75;;;4.82;;
17494;SDS011;8864;51.970;4.614;2023-02-28T09:36:45;28.70;;;4.78;;
17494;SDS011;8864;51.970;4.614;2023-02-28T09:39:15;18.60;;;4.25;;
17494;SDS011;8864;51.970;4.614;2023-02-28T09:41:45;20.98;;;3.88;;
17494;SDS011;8864;51.970;4.614;2023-02-28T09:44:17;21.77;;;4.25;;
17494;SDS011;8864;51.970;4.614;2023-02-28T09:46:52;18.77;;;3.75;;
17494;SDS011;8864;51.970;4.614;2023-02-28T09:49:30;15.13;;;3.70;;
17494;SDS011;8864;51.970;4.614;2023-02-28T09:52:09;18.48;;;3.60;;
17494;SDS011;8864;51.970;4.614;2023-02-28T09:54:38;13.50;;;3.90;;
17494;SDS011;8864;51.970;4.614;2023-02-28T09:57:06;19.58;;;3.92;;
17494;SDS011;8864;51.970;4.614;2023-02-28T09:59:40;13.30;;;3.70;;
17494;SDS011;8864;51.970;4.614;2023-02-28T10:02:21;20.73;;;4.20;;
17494;SDS011;8864;51.970;4.614;2023-02-28T10:05:04;19.83;;;3.65;;
17494;SDS011;8864;51.970;4.614;2023-02-28T10:07:42;12.02;;;3.70;;
17494;SDS011;8864;51.970;4.614;2023-02-28T10:10:50;11.02;;;3.22;;
17494;SDS011;8864;51.970;4.614;2023-02-28T10:13:22;9.13;;;2.88;;
17494;SDS011;8864;51.970;4.614;2023-02-28T10:15:56;15.57;;;3.35;;
17494;SDS011;8864;51.970;4.614;2023-02-28T10:18:30;11.27;;;2.80;;
17494;SDS011;8864;51.970;4.614;2023-02-28T10:21:06;13.75;;;2.55;;
17494;SDS011;8864;51.970;4.614;2023-02-28T10:23:59;10.82;;;2.70;;
17494;SDS011;8864;51.970;4.614;2023-02-28T10:26:32;18.88;;;2.65;;
17494;SDS011;8864;51.970;4.614;2023-02-28T10:29:01;15.43;;;3.10;;
17494;SDS011;8864;51.970;4.614;2023-02-28T10:31:30;9.30;;;2.33;;
17494;SDS011;8864;51.970;4.614;2023-02-28T10:33:57;10.25;;;3.08;;
17494;SDS011;8864;51.970;4.614;2023-02-28T10:36:26;8.77;;;2.47;;
17494;SDS011;8864;51.970;4.614;2023-02-28T10:38:53;12.25;;;2.45;;
17494;SDS011;8864;51.970;4.614;2023-02-28T10:41:28;7.28;;;2.47;;
17494;SDS011;8864;51.970;4.614;2023-02-28T10:46:48;11.15;;;2.83;;
17494;SDS011;8864;51.970;4.614;2023-02-28T10:49:17;9.80;;;2.13;;
17494;SDS011;8864;51.970;4.614;2023-02-28T10:51:55;8.93;;;2.20;;
17494;SDS011;8864;51.970;4.614;2023-02-28T10:54:24;4.38;;;2.00;;
17494;SDS011;8864;51.970;4.614;2023-02-28T10:57:06;11.02;;;2.33;;
17494;SDS011;8864;51.970;4.614;2023-02-28T10:59:40;7.00;;;2.25;;
17494;SDS011;8864;51.970;4.614;2023-02-28T11:05:02;7.78;;;2.33;;
17494;SDS011;8864;51.970;4.614;2023-02-28T11:07:53;7.28;;;1.95;;
17494;SDS011;8864;51.970;4.614;2023-02-28T11:10:28;9.10;;;1.80;;
17494;SDS011;8864;51.970;4.614;2023-02-28T11:13:04;7.00;;;1.98;;
17494;SDS011;8864;51.970;4.614;2023-02-28T11:15:32;7.68;;;2.00;;
17494;SDS011;8864;51.970;4.614;2023-02-28T11:18:01;4.78;;;1.67;;
17494;SDS011;8864;51.970;4.614;2023-02-28T11:20:51;6.53;;;1.75;;
17494;SDS011;8864;51.970;4.614;2023-02-28T11:23:28;4.20;;;1.63;;
17494;SDS011;8864;51.970;4.614;2023-02-28T11:25:59;5.18;;;1.75;;
17494;SDS011;8864;51.970;4.614;2023-02-28T11:28:42;6.05;;;1.83;;
17494;SDS011;8864;51.970;4.614;2023-02-28T11:31:15;5.63;;;1.27;;
17494;SDS011;8864;51.970;4.614;2023-02-28T11:33:48;2.92;;;1.33;;
17494;SDS011;8864;51.970;4.614;2023-02-28T11:36:23;4.82;;;1.60;;
17494;SDS011;8864;51.970;4.614;2023-02-28T11:39:11;4.78;;;1.45;;
17494;SDS011;8864;51.970;4.614;2023-02-28T11:41:45;5.13;;;1.50;;
17494;SDS011;8864;51.970;4.614;2023-02-28T11:44:26;4.35;;;1.38;;
17494;SDS011;8864;51.970;4.614;2023-02-28T11:47:06;3.20;;;1.23;;
17494;SDS011;8864;51.970;4.614;2023-02-28T11:49:45;3.67;;;1.27;;
17494;SDS011;8864;51.970;4.614;2023-02-28T11:52:29;3.13;;;1.25;;
17494;SDS011;8864;51.970;4.614;2023-02-28T11:55:17;5.05;;;1.48;;
17494;SDS011;8864;51.970;4.614;2023-02-28T11:57:59;3.92;;;1.23;;
17494;SDS011;8864;51.970;4.614;2023-02-28T12:01:01;2.63;;;1.23;;
17494;SDS011;8864;51.970;4.614;2023-02-28T12:03:43;2.33;;;1.08;;
17494;SDS011;8864;51.970;4.614;2023-02-28T12:06:18;2.75;;;1.30;;
17494;SDS011;8864;51.970;4.614;2023-02-28T12:09:02;5.93;;;1.40;;
17494;SDS011;8864;51.970;4.614;2023-02-28T12:11:44;3.97;;;1.33;;
17494;SDS011;8864;51.970;4.614;2023-02-28T12:14:24;5.05;;;1.00;;
17494;SDS011;8864;51.970;4.614;2023-02-28T12:17:18;2.67;;;1.27;;
17494;SDS011;8864;51.970;4.614;2023-02-28T12:19:58;2.13;;;1.00;;
17494;SDS011;8864;51.970;4.614;2023-02-28T12:22:40;2.38;;;1.42;;
17494;SDS011;8864;51.970;4.614;2023-02-28T12:25:22;3.13;;;0.90;;
17494;SDS011;8864;51.970;4.614;2023-02-28T12:28:21;4.07;;;1.20;;
17494;SDS011;8864;51.970;4.614;2023-02-28T12:30:54;2.70;;;1.10;;
17494;SDS011;8864;51.970;4.614;2023-02-28T12:33:28;2.03;;;1.00;;
17494;SDS011;8864;51.970;4.614;2023-02-28T12:36:02;2.40;;;0.90;;
17494;SDS011;8864;51.970;4.614;2023-02-28T12:38:41;1.77;;;0.80;;
17494;SDS011;8864;51.970;4.614;2023-02-28T12:41:16;2.28;;;1.05;;
17494;SDS011;8864;51.970;4.614;2023-02-28T12:43:48;4.22;;;1.10;;
17494;SDS011;8864;51.970;4.614;2023-02-28T12:46:22;2.30;;;1.02;;
17494;SDS011;8864;51.970;4.614;2023-02-28T12:48:58;2.42;;;0.95;;
17494;SDS011;8864;51.970;4.614;2023-02-28T12:51:33;2.15;;;1.10;;
17494;SDS011;8864;51.970;4.614;2023-02-28T12:54:04;4.20;;;0.95;;
17494;SDS011;8864;51.970;4.614;2023-02-28T12:56:42;3.63;;;0.90;;
17494;SDS011;8864;51.970;4.614;2023-02-28T12:59:30;10.23;;;1.10;;
17494;SDS011;8864;51.970;4.614;2023-02-28T13:05:26;4.35;;;1.00;;
17494;SDS011;8864;51.970;4.614;2023-02-28T13:08:16;6.97;;;1.08;;
17494;SDS011;8864;51.970;4.614;2023-02-28T13:11:01;2.63;;;0.88;;
17494;SDS011;8864;51.970;4.614;2023-02-28T13:13:29;2.38;;;0.93;;
17494;SDS011;8864;51.970;4.614;2023-02-28T13:15:59;2.10;;;1.02;;
17494;SDS011;8864;51.970;4.614;2023-02-28T13:18:30;2.50;;;1.10;;
17494;SDS011;8864;51.970;4.614;2023-02-28T13:21:06;1.63;;;0.77;;
17494;SDS011;8864;51.970;4.614;2023-02-28T13:23:39;4.20;;;1.10;;
17494;SDS011;8864;51.970;4.614;2023-02-28T13:29:52;2.03;;;0.90;;
17494;SDS011;8864;51.970;4.614;2023-02-28T13:32:31;4.40;;;0.80;;
17494;SDS011;8864;51.970;4.614;2023-02-28T13:38:19;2.22;;;0.82;;
17494;SDS011;8864;51.970;4.614;2023-02-28T13:40:52;4.38;;;1.05;;
17494;SDS011;8864;51.970;4.614;2023-02-28T13:43:29;3.15;;;0.90;;
17494;SDS011;8864;51.970;4.614;2023-02-28T13:46:35;1.38;;;0.75;;
17494;SDS011;8864;51.970;4.614;2023-02-28T13:49:24;1.58;;;0.85;;
17494;SDS011;8864;51.970;4.614;2023-02-28T13:52:07;3.78;;;1.00;;
17494;SDS011;8864;51.970;4.614;2023-02-28T13:54:45;2.33;;;0.70;;
17494;SDS011;8864;51.970;4.614;2023-02-28T13:57:33;1.92;;;0.82;;
17494;SDS011;8864;51.970;4.614;2023-02-28T14:00:17;1.25;;;0.85;;
17494;SDS011;8864;51.970;4.614;2023-02-28T14:03:16;1.10;;;0.68;;
17494;SDS011;8864;51.970;4.614;2023-02-28T14:06:07;1.27;;;0.70;;
17494;SDS011;8864;51.970;4.614;2023-02-28T14:08:51;3.45;;;0.90;;
17494;SDS011;8864;51.970;4.614;2023-02-28T14:11:34;5.57;;;0.63;;
17494;SDS011;8864;51.970;4.614;2023-02-28T14:14:03;1.98;;;0.70;;
17494;SDS011;8864;51.970;4.614;2023-02-28T14:16:36;1.58;;;0.80;;
17494;SDS011;8864;51.970;4.614;2023-02-28T14:19:10;1.00;;;0.70;;
17494;SDS011;8864;51.970;4.614;2023-02-28T14:21:44;1.50;;;0.65;;
17494;SDS011;8864;51.970;4.614;2023-02-28T14:24:25;5.57;;;0.70;;
17494;SDS011;8864;51.970;4.614;2023-02-28T14:33:08;2.13;;;0.80;;
17494;SDS011;8864;51.970;4.614;2023-02-28T14:35:52;1.83;;;0.80;;
17494;SDS011;8864;51.970;4.614;2023-02-28T14:38:40;1.92;;;0.73;;
17494;SDS011;8864;51.970;4.614;2023-02-28T14:41:13;3.40;;;0.73;;
17494;SDS011;8864;51.970;4.614;2023-02-28T14:43:49;2.38;;;0.60;;
17494;SDS011;8864;51.970;4.614;2023-02-28T14:46:18;1.70;;;0.70;;
17494;SDS011;8864;51.970;4.614;2023-02-28T14:48:51;0.98;;;0.75;;
17494;SDS011;8864;51.970;4.614;2023-02-28T14:51:20;0.80;;;0.60;;
17494;SDS011;8864;51.970;4.614;2023-02-28T14:53:56;1.10;;;0.60;;
17494;SDS011;8864;51.970;4.614;2023-02-28T14:56:24;1.17;;;0.70;;
17494;SDS011;8864;51.970;4.614;2023-02-28T14:59:05;0.93;;;0.60;;
17494;SDS011;8864;51.970;4.614;2023-02-28T15:04:42;1.13;;;0.60;;
17494;SDS011;8864;51.970;4.614;2023-02-28T15:07:10;1.55;;;0.70;;
17494;SDS011;8864;51.970;4.614;2023-02-28T15:09:43;1.95;;;0.90;;
17494;SDS011;8864;51.970;4.614;2023-02-28T15:12:14;1.45;;;0.77;;
17494;SDS011;8864;51.970;4.614;2023-02-28T15:14:47;0.93;;;0.73;;
17494;SDS011;8864;51.970;4.614;2023-02-28T15:17:17;0.50;;;0.50;;
17494;SDS011;8864;51.970;4.614;2023-02-28T15:19:51;0.60;;;0.50;;
17494;SDS011;8864;51.970;4.614;2023-02-28T15:22:28;1.38;;;0.60;;
17494;SDS011;8864;51.970;4.614;2023-02-28T15:25:12;0.98;;;0.65;;
17494;SDS011;8864;51.970;4.614;2023-02-28T15:27:44;0.85;;;0.55;;
17494;SDS011;8864;51.970;4.614;2023-02-28T15:30:16;0.60;;;0.60;;
17494;SDS011;8864;51.970;4.614;2023-02-28T15:33:03;1.23;;;0.80;;
17494;SDS011;8864;51.970;4.614;2023-02-28T15:35:37;2.38;;;0.70;;
17494;SDS011;8864;51.970;4.614;2023-02-28T15:38:18;2.42;;;0.60;;
17494;SDS011;8864;51.970;4.614;2023-02-28T15:40:52;0.98;;;0.60;;
17494;SDS011;8864;51.970;4.614;2023-02-28T15:43:25;1.45;;;0.70;;
17494;SDS011;8864;51.970;4.614;2023-02-28T15:45:58;0.98;;;0.60;;
17494;SDS011;8864;51.970;4.614;2023-02-28T15:48:27;0.65;;;0.60;;
17494;SDS011;8864;51.970;4.614;2023-02-28T15:50:56;1.27;;;0.70;;
17494;SDS011;8864;51.970;4.614;2023-02-28T15:53:28;0.68;;;0.60;;
17494;SDS011;8864;51.970;4.614;2023-02-28T15:56:02;0.80;;;0.63;;
17494;SDS011;8864;51.970;4.614;2023-02-28T15:58:41;2.17;;;0.50;;
17494;SDS011;8864;51.970;4.614;2023-02-28T16:01:25;0.60;;;0.60;;
17494;SDS011;8864;51.970;4.614;2023-02-28T16:03:57;0.52;;;0.45;;
17494;SDS011;8864;51.970;4.614;2023-02-28T16:06:36;1.13;;;0.60;;
17494;SDS011;8864;51.970;4.614;2023-02-28T16:09:08;0.88;;;0.60;;
17494;SDS011;8864;51.970;4.614;2023-02-28T16:11:42;1.00;;;0.50;;
17494;SDS011;8864;51.970;4.614;2023-02-28T16:14:13;0.85;;;0.52;;
17494;SDS011;8864;51.970;4.614;2023-02-28T16:16:45;1.73;;;0.73;;